Surface/Atmospheric History
02/18/2019 18:13  to  2/19/2019 18:13
Change End Date:
To complete the export process:
1) Select all of the data below
2) Copy the data to the clipboard
3) Open a word processor such as Notepad
4) Paste the data into the word processor
5) Save the file

Date/Time (MST), SfStat, SfTemp, PvtTemp, SubTemp, AirTemp, RH, Dewpoint, AvgWindSpeed, GustWindSpeed, WindDirection, PrecipType, PrecipIntenisity
02/19/2019 18:06, Dry , 20.5 , , 25, 18, 46, 1, 6, 12, SW, None, None
02/19/2019 17:58, Dry , 20.5 , , 25, 15, 48, -1, 7, 11, W, None, None
02/19/2019 17:56, Dry , 20.5 , , 25, 14, 48, -2, 9, 11, W, None, None
02/19/2019 17:46, Dry , 21.4 , , 25, 15, 46, -2, 9, 12, W, None, None
02/19/2019 17:43, Dry , 21.6 , , 25, 15, 46, -2, 10, 12, W, None, None
02/19/2019 17:36, Dry , 22.3 , , 25, 15, 46, -2, 9, 11, W, None, None
02/19/2019 17:28, Dry , 23.2 , , 25, 17, 44, -1, 10, 16, W, None, None
02/19/2019 17:26, Dry , 23.4 , , 25, 16, 44, -2, 9, 16, W, None, None
02/19/2019 17:16, Dry , 24.3 , , 25, 17, 42, -1, 8, 10, W, None, None
02/19/2019 17:13, Dry , 24.8 , , 25, 17, 42, -1, 7, 9, W, None, None
02/19/2019 17:06, Dry , 25.3 , , 25, 18, 42, -1, 7, 15, W, None, None
02/19/2019 16:58, Dry , 26.4 , , 24, 19, 42, 0, 10, 15, SW, None, None
02/19/2019 16:55, Dry , 26.8 , , 24, 18, 42, -1, 8, 12, W, None, None
02/19/2019 16:45, Dry , 28 , , 24, 19, 41, -1, 10, 12, W, None, None
02/19/2019 16:43, Dry , 28.4 , , 24, 19, 40, -1, 9, 12, W, None, None
02/19/2019 16:35, Dry , 29.3 , , 24, 19, 40, -1, 8, 14, W, None, None
02/19/2019 16:28, Dry , 31.6 , , 24, 20, 38, -1, 11, 15, W, None, None
02/19/2019 16:25, Dry , 32.4 , , 24, 20, 38, -1, 11, 15, W, None, None
02/19/2019 16:15, Dry , 33.3 , , 24, 20, 38, -1, 12, 18, W, None, None
02/19/2019 16:13, Dry , 34.7 , , 24, 21, 38, 0, 11, 20, W, None, None
02/19/2019 16:05, Dry , 35.1 , , 24, 21, 38, 0, 16, 20, SW, None, None
02/19/2019 15:58, Dry , 36.1 , , 24, 21, 38, 0, 14, 19, SW, None, None
02/19/2019 15:55, Dry , 36.1 , , 24, 21, 38, 0, 15, 21, SW, None, None
02/19/2019 15:45, Dry , 36.3 , , 24, 21, 38, 0, 19, 24, SW, None, None
02/19/2019 15:43, Dry , 36.3 , , 24, 21, 38, 0, 18, 24, W, None, None
02/19/2019 15:35, Dry , 37.2 , , 24, 20, 38, -1, 16, 24, SW, None, None
02/19/2019 15:28, Dry , 39 , , 24, 21, 38, 0, 19, 24, W, None, None
02/19/2019 15:25, Dry , 39.2 , , 24, 21, 38, 0, 19, 24, W, None, None
02/19/2019 15:15, Dry , 40.3 , , 24, 21, 38, -1, 17, 24, W, None, None
02/19/2019 15:13, Dry , 40.3 , , 24, 21, 38, -1, 17, 24, SW, None, None
02/19/2019 15:05, Dry , 41.4 , , 24, 21, 38, -1, 19, 25, W, None, None
02/19/2019 14:58, Dry , 41.4 , , 24, 21, 38, -1, 17, 25, W, None, None
02/19/2019 14:55, Dry , 41.5 , , 24, 21, 37, -1, 17, 24, SW, None, None
02/19/2019 14:45, Dry , 42.6 , , 24, 21, 37, -1, 18, 24, SW, None, None
02/19/2019 14:43, Dry , 42.8 , , 24, 21, 37, -1, 19, 24, SW, None, None
02/19/2019 14:35, Dry , 43.3 , , 24, 21, 37, -1, 17, 22, SW, None, None
02/19/2019 14:28, Dry , 44.1 , , 24, 21, 37, -1, 16, 20, SW, None, None
02/19/2019 14:25, Dry , 44.2 , , 24, 21, 36, -1, 16, 19, W, None, None
02/19/2019 14:15, Dry , 44.8 , , 24, 22, 36, -1, 12, 21, SW, None, None
02/19/2019 14:13, Dry , 45 , , 24, 22, 37, -1, 12, 21, W, None, None
02/19/2019 14:05, Dry , 45.3 , , 23, 21, 37, 0, 15, 18, SW, None, None
02/19/2019 13:58, Dry , 45.9 , , 23, 22, 37, 0, 13, 19, SW, None, None
02/19/2019 13:55, Dry , 46 , , 23, 21, 37, -1, 16, 19, SW, None, None
02/19/2019 13:45, Dry , 46.8 , , 23, 22, 37, 0, 13, 19, W, None, None
02/19/2019 13:44, Dry , 46.6 , , 23, 22, 37, 0, 11, 19, W, None, None
02/19/2019 13:35, Dry , 46.9 , , 23, 23, 40, 2, 7, 11, SW, None, None
02/19/2019 13:28, Dry , 46.4 , , 23, 22, 44, 3, 2, 6, N, None, None
02/19/2019 13:24, Dry , 45.5 , , 23, 20, 46, 3, 4, 7, N, None, None
02/19/2019 13:14, Dry , 45.5 , , 23, 20, 48, 4, 5, 7, N, None, None
02/19/2019 13:13, Dry , 45.5 , , 23, 20, 48, 4, 4, 7, N, None, None
02/19/2019 13:04, Dry , 45.3 , , 23, 18, 49, 2, 6, 9, N, None, None
02/19/2019 12:58, Dry , 44.2 , , 23, 18, 50, 3, 6, 8, N, None, None
02/19/2019 12:54, Dry , 43.7 , , 23, 18, 50, 3, 4, 6, N, None, None
02/19/2019 12:44, Dry , 43.9 , , 23, 18, 52, 3, 4, 6, NE, None, None
02/19/2019 12:43, Dry , 43.5 , , 23, 17, 52, 3, 4, 6, NE, None, None
02/19/2019 12:34, Dry , 41.9 , , 23, 17, 52, 3, 3, 4, N, None, None
02/19/2019 12:28, Dry , 42.1 , , 23, 17, 53, 3, 3, 4, NE, None, None
02/19/2019 12:24, Dry , 41.9 , , 23, 17, 54, 3, 2, 4, NE, None, None
02/19/2019 12:14, Dry , 41.4 , , 23, 15, 55, 2, 3, 5, NE, None, None
02/19/2019 12:13, Dry , 41.4 , , 23, 15, 55, 2, 4, 5, N, None, None
02/19/2019 12:04, Dry , 39.7 , , 23, 17, 55, 3, 3, 5, N, None, None
02/19/2019 11:58, Dry , 39.4 , , 23, 17, 57, 4, 1, 2, NE, None, None
02/19/2019 11:54, Dry , 38.8 , , 23, 16, 58, 4, 1, 2, E, None, None
02/19/2019 11:44, Dry , 37.4 , , 23, 12, 63, 2, 2, 5, E, None, None
02/19/2019 11:43, Dry , 37.4 , , 23, 12, 63, 2, 2, 5, E, None, None
02/19/2019 11:34, Dry , 36.5 , , 23, 11, 64, 1, 4, 6, NE, None, None
02/19/2019 11:28, Dry , 35.6 , , 23, 10, 65, 1, 4, 6, NE, None, None
02/19/2019 11:24, Dry , 35.1 , , 23, 10, 66, 1, 4, 6, NE, None, None
02/19/2019 11:14, Dry , 33.8 , , 23, 9, 67, 1, 4, 4, NE, None, None
02/19/2019 11:13, Dry , 33.8 , , 23, 9, 67, 1, 4, 4, NE, None, None
02/19/2019 11:04, Dry , 31.6 , , 23, 9, 69, 1, 2, 6, NE, None, None
02/19/2019 10:58, Dry , 30.4 , , 23, 8, 70, 1, 4, 5, NE, None, None
02/19/2019 10:54, Dry , 29.8 , , 24, 8, 71, 1, 3, 5, NE, None, None
02/19/2019 10:44, Dry , 28.8 , , 24, 7, 73, 0, 4, 6, NE, None, None
02/19/2019 10:43, Dry , 28.8 , , 24, 7, 73, 0, 4, 6, NE, None, None
02/19/2019 10:34, Dry , 27 , , 24, 6, 75, 0, 4, 6, NE, None, None
02/19/2019 10:28, Dry , 25.9 , , 24, 5, 76, 0, 5, 6, NE, None, None
02/19/2019 10:24, Dry , 24.4 , , 24, 5, 77, -1, 4, 6, NE, None, None
02/19/2019 10:14, Dry , 22.6 , , 24, 4, 79, -1, 4, 7, NE, None, None
02/19/2019 10:13, Dry , 22.6 , , 24, 4, 79, -1, 5, 7, NE, None, None
02/19/2019 10:04, Dry , 20.7 , , 24, 2, 81, -2, 6, 7, NE, None, None
02/19/2019 09:58, Dry , 19.9 , , 24, 2, 82, -2, 3, 9, NE, None, None
02/19/2019 09:54, Dry , 18.7 , , 24, 1, 83, -3, 6, 9, NE, None, None
02/19/2019 09:43, Dry , 17.1 , , 24, 1, 86, -2, 7, 9, NE, None, None
02/19/2019 09:43, Dry , 17.1 , , 24, 1, 86, -2, 7, 9, NE, None, None
02/19/2019 09:33, Dry , 14.9 , , 24, 0, 89, -2, 7, 7, NE, None, None
02/19/2019 09:29, Dry , 14 , , 24, 0, 90, -2, 6, 7, NE, Other, Other
02/19/2019 09:23, Dry , 13.3 , , 24, 0, 90, -2, 4, 6, NE, Other, Other
02/19/2019 09:13, Dry , 10.9 , , 24, -1, 90, -3, 4, 6, NE, Other, Other
02/19/2019 09:13, Dry , 10.9 , , 24, -1, 90, -3, 4, 6, NE, Other, Other
02/19/2019 09:03, Dry , 9 , , 24, -3, 90, -5, 4, 6, N, Other, Other
02/19/2019 08:58, Dry , 8.2 , , 24, -4, 90, -6, 4, 6, N, Other, Other
02/19/2019 08:53, Dry , 7.5 , , 24, -3, 90, -5, 3, 4, N, Other, Other
02/19/2019 08:43, Dry , 5.5 , , 24, -3, 90, -5, 2, 4, NE, Other, Other
02/19/2019 08:43, Dry , 5.5 , , 24, -3, 90, -5, 2, 4, NE, Other, Other
02/19/2019 08:33, Dry , 3.9 , , 24, -2, 90, -4, 2, 4, N, Other, Other
02/19/2019 08:28, Dry , 3 , , 24, -3, 90, -5, 2, 4, E, Other, Other
02/19/2019 08:23, Dry , 1.9 , , 24, -4, 90, -6, 1, 5, NW, Other, Other
02/19/2019 08:13, Dry , 0.3 , , 24, -6, 89, -8, 3, 5, N, Other, Other
02/19/2019 08:13, Dry , 0.3 , , 24, -6, 89, -8, 3, 5, N, Other, Other
02/19/2019 08:03, Dry , -1.5 , , 24, -8, 89, -10, 4, 7, N, Other, Other
02/19/2019 07:58, Dry , -2 , , 24, -9, 89, -11, 4, 6, NE, Other, Other
02/19/2019 07:53, Dry , -2.9 , , 25, -9, 89, -11, 6, 6, NE, Other, Other
02/19/2019 07:43, Dry , -4.2 , , 25, -11, 89, -13, 3, 5, NE, Other, Other
02/19/2019 07:43, Dry , -4 , , 25, -11, 89, -13, 3, 5, NE, Other, Other
02/19/2019 07:33, Dry , -4.2 , , 25, -11, 89, -13, 3, 5, NE, Other, Other
02/19/2019 07:28, Dry , -4.2 , , 25, -11, 89, -13, 4, 5, NE, Other, Other
02/19/2019 07:23, Dry , -4.4 , , 25, -12, 89, -14, 2, 4, NE, Other, Other
02/19/2019 07:13, Dry , -4.4 , , 25, -14, 89, -16, 2, 3, NE, Other, Other
02/19/2019 07:13, Dry , -4.4 , , 25, -14, 89, -16, 2, 3, NE, Other, Other
02/19/2019 07:03, Dry , -4.4 , , 25, -15, 89, -17, 1, 2, NE, Other, Other
02/19/2019 06:59, Dry , -4.2 , , 25, -15, 89, -17, 1, 2, NE, Other, Other
02/19/2019 06:53, Dry , -4.2 , , 25, -15, 89, -17, 0, 2, E, Other, Other
02/19/2019 06:44, Dry , -4.2 , , 25, -14, 89, -16, 1, 2, NE, Other, Other
02/19/2019 06:43, Dry , -4.2 , , 25, -14, 89, -16, 1, 1, NE, Other, Other
02/19/2019 06:33, Dry , -3.8 , , 25, -13, 89, -16, 2, 4, NE, Other, Other
02/19/2019 06:29, Dry , -3.8 , , 25, -14, 89, -16, 2, 3, NE, Other, Other
02/19/2019 06:23, Ice Watch , -3.6 , , 25, -14, 89, -16, 1, 2, NE, Other, Other
02/19/2019 06:14, Ice Watch , -3.5 , , 25, -14, 89, -16, 2, 4, NE, Other, Other
02/19/2019 06:12, Ice Watch , -3.5 , , 25, -14, 89, -17, 1, 2, NE, Other, Other
02/19/2019 06:02, Dry , -3.5 , , 25, -15, 89, -17, 3, 4, NE, Other, Other
02/19/2019 05:59, Dry , -3.3 , , 25, -15, 89, -17, 1, 3, E, Other, Other
02/19/2019 05:52, Dry , -3.1 , , 25, -15, 89, -17, 0, 2, E, Other, Other
02/19/2019 05:44, Dry , -3.1 , , 25, -14, 89, -17, 0, 1, E, Other, Other
02/19/2019 05:42, Dry , -2.9 , , 25, -14, 89, -16, 0, 1, E, Other, Other
02/19/2019 05:32, Dry , -2.7 , , 26, -13, 89, -15, 0, 1, E, Other, Other
02/19/2019 05:29, Dry , -2.7 , , 26, -13, 89, -15, 0, 1, E, Other, Other
02/19/2019 05:22, Ice Warning , -2.7 , , 26, -13, 89, -16, 0, 0, E, Other, Other
02/19/2019 05:14, Ice Warning , -2.4 , , 26, -13, 89, -15, 0, 0, E, Other, Other
02/19/2019 05:12, Ice Warning , -2.2 , , 26, -13, 90, -15, 0, 1, E, Other, Other
02/19/2019 05:02, Ice Warning , -2 , , 26, -13, 90, -15, 0, 0, E, Other, Other
02/19/2019 04:59, Ice Warning , -2 , , 26, -13, 90, -15, 0, 0, E, Other, Other
02/19/2019 04:52, Ice Warning , -2 , , 26, -13, 90, -15, 0, 1, S, Other, Other
02/19/2019 04:44, Ice Warning , -2 , , 26, -12, 90, -14, 0, 2, S, Other, Other
02/19/2019 04:42, Ice Warning , -1.8 , , 26, -12, 90, -14, 0, 2, S, Other, Other
02/19/2019 04:32, Ice Warning , -1.7 , , 26, -13, 90, -15, 2, 3, S, Other, Other
02/19/2019 04:29, Ice Warning , -1.7 , , 26, -13, 90, -15, 1, 2, S, Other, Other
02/19/2019 04:22, Ice Warning , -1.5 , , 26, -13, 90, -15, 0, 2, NW, Other, Other
02/19/2019 04:14, Ice Warning , -1.3 , , 26, -13, 90, -15, 1, 2, NW, Other, Other
02/19/2019 04:12, Ice Warning , -1.3 , , 26, -13, 90, -15, 0, 2, NW, Other, Other
02/19/2019 04:02, Ice Warning , -1.1 , , 26, -13, 90, -15, 1, 2, W, Other, Other
02/19/2019 03:59, Ice Warning , -1.1 , , 26, -13, 90, -15, 0, 2, N, Other, Other
02/19/2019 03:52, Ice Warning , -1.1 , , 26, -12, 90, -14, 1, 3, SW, Other, Other
02/19/2019 03:44, Ice Warning , -0.8 , , 26, -13, 90, -15, 1, 3, SW, Other, Other
02/19/2019 03:42, Ice Warning , -0.8 , , 26, -13, 90, -15, 2, 3, SW, Other, Other
02/19/2019 03:32, Ice Warning , -0.2 , , 26, -12, 90, -14, 1, 3, E, Other, Other
02/19/2019 03:29, Ice Warning , 0 , , 26, -12, 90, -14, 0, 3, E, Other, Other
02/19/2019 03:22, Ice Warning , 0 , , 26, -11, 90, -13, 2, 3, NE, Other, Other
02/19/2019 03:14, Ice Warning , 0.1 , , 26, -11, 90, -13, 1, 1, E, Other, Other
02/19/2019 03:12, Ice Warning , 0 , , 26, -11, 90, -13, 0, 2, S, Other, Other
02/19/2019 03:02, Ice Warning , 0.1 , , 26, -12, 90, -14, 0, 2, NE, Other, Other
02/19/2019 02:59, Ice Warning , 0.1 , , 26, -12, 90, -14, 0, 3, NE, Other, Other
02/19/2019 02:52, Ice Warning , 0.1 , , 26, -11, 90, -13, 3, 4, NW, Other, Other
02/19/2019 02:44, Ice Warning , 0.7 , , 26, -10, 90, -12, 3, 6, W, Other, Other
02/19/2019 02:41, Ice Warning , 0.9 , , 26, -10, 91, -11, 1, 6, E, Other, Other
02/19/2019 02:31, Ice Warning , 0.9 , , 26, -10, 91, -12, 1, 3, NW, Other, Other
02/19/2019 02:29, Ice Warning , 0.9 , , 26, -10, 91, -12, 2, 4, NW, Other, Other
02/19/2019 02:21, Ice Warning , 1 , , 26, -8, 91, -10, 1, 4, NW, None, None
02/19/2019 02:14, Ice Warning , 1.2 , , 26, -7, 91, -9, 2, 5, E, None, None
02/19/2019 02:11, Ice Warning , 1.2 , , 26, -7, 91, -9, 2, 6, E, None, None
02/19/2019 02:01, Ice Warning , 1.4 , , 26, -8, 91, -10, 4, 9, NE, None, None
02/19/2019 01:59, Ice Warning , 1.6 , , 27, -8, 91, -10, 4, 9, NE, None, None
02/19/2019 01:51, Ice Warning , 1.6 , , 27, -7, 91, -9, 5, 7, E, None, None
02/19/2019 01:44, Ice Warning , 1.8 , , 27, -7, 91, -8, 3, 5, NE, None, None
02/19/2019 01:41, Ice Warning , 1.8 , , 27, -6, 91, -8, 3, 7, E, None, None
02/19/2019 01:31, Ice Warning , 2.1 , , 27, -5, 91, -7, 6, 7, E, None, None
02/19/2019 01:29, Ice Warning , 2.3 , , 27, -5, 91, -7, 4, 7, E, None, None
02/19/2019 01:21, Ice Warning , 2.5 , , 27, -5, 91, -7, 3, 6, E, None, None
02/19/2019 01:14, Ice Warning , 2.5 , , 27, -6, 91, -7, 4, 7, E, None, None
02/19/2019 01:11, Ice Warning , 2.5 , , 27, -5, 91, -7, 5, 7, E, None, None
02/19/2019 01:01, Ice Warning , 2.7 , , 27, -5, 91, -7, 4, 9, E, None, None
02/19/2019 00:59, Ice Warning , 2.7 , , 27, -5, 91, -7, 4, 9, E, None, None
02/19/2019 00:51, Ice Warning , 2.7 , , 27, -6, 91, -7, 7, 11, E, None, None
02/19/2019 00:44, Ice Warning , 3 , , 27, -5, 91, -7, 7, 9, E, None, None
02/19/2019 00:41, Ice Warning , 3.6 , , 27, -5, 91, -7, 5, 7, E, None, None
02/19/2019 00:31, Ice Warning , 3.7 , , 27, -4, 91, -6, 4, 5, E, None, None
02/19/2019 00:29, Ice Warning , 3.7 , , 27, -4, 91, -6, 3, 4, E, None, None
02/19/2019 00:21, Ice Warning , 4.1 , , 27, -4, 91, -5, 3, 4, NE, None, None
02/19/2019 00:14, Ice Warning , 4.3 , , 27, -4, 91, -6, 2, 4, NE, None, None
02/19/2019 00:11, Ice Warning , 4.5 , , 27, -4, 91, -6, 2, 4, NE, None, None
02/19/2019 00:01, Ice Warning , 4.8 , , 27, -3, 91, -4, 1, 7, N, None, None
02/18/2019 23:59, Ice Warning , 4.8 , , 27, -2, 91, -4, 2, 7, N, None, None
02/18/2019 23:51, Ice Warning , 5.2 , , 27, -2, 91, -4, 4, 6, E, None, None
02/18/2019 23:44, Ice Warning , 5.4 , , 27, -2, 91, -4, 4, 6, E, None, None
02/18/2019 23:41, Ice Warning , 5.4 , , 27, -2, 91, -4, 2, 6, E, None, None
02/18/2019 23:31, Ice Warning , 5.9 , , 27, -1, 91, -3, 4, 8, NE, None, None
02/18/2019 23:29, Ice Warning , 5.9 , , 27, -1, 91, -3, 5, 8, NE, None, None
02/18/2019 23:21, Ice Warning , 6.4 , , 27, -2, 91, -3, 7, 7, E, None, None
02/18/2019 23:14, Ice Warning , 6.6 , , 27, -1, 91, -3, 6, 7, E, None, None
02/18/2019 23:10, Ice Warning , 6.8 , , 27, -1, 91, -3, 4, 5, E, None, None
02/18/2019 23:00, Ice Warning , 7.5 , , 27, 1, 91, -1, 3, 4, E, None, None
02/18/2019 22:59, Ice Warning , 7.5 , , 27, 1, 91, -1, 3, 4, E, None, None
02/18/2019 22:50, Ice Warning , 8.1 , , 27, 2, 91, 0, 2, 3, NE, None, None
02/18/2019 22:43, Ice Warning , 8.4 , , 27, 2, 90, 0, 1, 2, NE, None, None
02/18/2019 22:40, Ice Warning , 8.8 , , 27, 3, 90, 1, 1, 2, NE, None, None
02/18/2019 22:30, Ice Warning , 9.5 , , 27, 3, 90, 1, 1, 2, NE, None, None
02/18/2019 22:29, Ice Warning , 9.7 , , 27, 4, 90, 1, 1, 2, NE, None, None
02/18/2019 22:20, Ice Warning , 10.4 , , 27, 4, 89, 1, 1, 3, NE, None, None
02/18/2019 22:14, Ice Warning , 10.8 , , 27, 4, 89, 1, 1, 2, NE, None, None
02/18/2019 22:10, Ice Warning , 10.9 , , 27, 3, 89, 1, 0, 1, NW, None, None
02/18/2019 22:00, Ice Warning , 11.3 , , 27, 4, 89, 1, 1, 2, NW, Yes,
02/18/2019 21:59, Ice Warning , 11.3 , , 27, 4, 89, 1, 1, 2, NW, Yes,
02/18/2019 21:50, Ice Warning , 11.5 , , 27, 4, 88, 1, 1, 2, W, Yes,
02/18/2019 21:44, Ice Warning , 11.5 , , 27, 4, 88, 1, 2, 2, W, Yes,
02/18/2019 21:40, Ice Warning , 11.7 , , 27, 4, 88, 1, 2, 2, W, Yes,
02/18/2019 21:30, Ice Warning , 11.8 , , 27, 4, 88, 1, 2, 2, W, Yes,
02/18/2019 21:29, Ice Warning , 11.8 , , 27, 4, 88, 1, 2, 2, W, Yes,
02/18/2019 21:20, Ice Warning , 11.8 , , 27, 4, 87, 1, 1, 2, SW, Yes,
02/18/2019 21:14, Ice Warning , 12.2 , , 27, 4, 87, 1, 1, 1, SW, Yes,
02/18/2019 21:10, Ice Warning , 12.2 , , 27, 4, 87, 1, 1, 1, SW, Yes,
02/18/2019 21:00, Ice Warning , 12.4 , , 27, 4, 87, 1, 1, 1, SW, Yes,
02/18/2019 20:59, Ice Warning , 12.6 , , 27, 4, 86, 1, 1, 1, SW, Yes,
02/18/2019 20:50, Ice Warning , 12.9 , , 27, 5, 86, 1, 0, 1, NW, Yes,
02/18/2019 20:44, Ice Warning , 12.9 , , 27, 5, 85, 1, 0, 0, NW, Yes,
02/18/2019 20:40, Ice Warning , 12.7 , , 27, 5, 85, 1, 0, 0, N, Yes,
02/18/2019 20:30, Ice Warning , 13.3 , , 27, 5, 85, 1, 0, 0, N, Yes,
02/18/2019 20:29, Ice Warning , 13.3 , , 27, 5, 85, 1, 0, 0, N, Yes,
02/18/2019 20:20, Ice Warning , 13.3 , , 27, 5, 85, 1, 0, 0, N, Yes,
02/18/2019 20:14, Ice Warning , 13.3 , , 27, 5, 84, 1, 0, 0, N, Yes,
02/18/2019 20:10, Ice Warning , 13.1 , , 27, 4, 84, 1, 0, 0, N, Yes,
02/18/2019 20:00, Ice Warning , 13.3 , , 27, 4, 84, 1, 0, 0, NE, Yes,
02/18/2019 19:59, Ice Warning , 13.3 , , 27, 4, 84, 1, 0, 0, NE, Yes,
02/18/2019 19:50, Ice Warning , 13.3 , , 27, 4, 83, 1, 0, 0, NE, Yes,
02/18/2019 19:44, Ice Warning , 13.3 , , 27, 4, 83, 1, 0, 0, NE, Yes,
02/18/2019 19:39, Ice Warning , 13.3 , , 27, 4, 83, 0, 0, 0, NE, Yes,
02/18/2019 19:29, Ice Warning , 13.3 , , 27, 4, 83, 0, 0, 0, NE, Yes,
02/18/2019 19:29, Ice Warning , 13.5 , , 27, 4, 83, 0, 0, 0, NE, Yes,
02/18/2019 19:19, Ice Warning , 13.3 , , 27, 4, 82, 0, 0, 0, NE, Yes,
02/18/2019 19:14, Ice Warning , 13.3 , , 27, 4, 81, 0, 0, 0, NE, Yes,
02/18/2019 19:09, Ice Warning , 13.5 , , 27, 4, 81, 0, 0, 0, NE, Yes,
02/18/2019 18:59, Ice Warning , 13.5 , , 27, 4, 81, 0, 0, 1, NE, Yes,
02/18/2019 18:59, Ice Warning , 13.6 , , 27, 4, 81, 0, 0, 1, NE, Yes,
02/18/2019 18:49, Ice Warning , 14 , , 27, 5, 81, 0, 1, 3, NE, Yes,
02/18/2019 18:44, Ice Warning , 14 , , 27, 5, 81, 0, 2, 3, NE, Yes,
02/18/2019 18:39, Ice Warning , 14 , , 27, 5, 80, 0, 1, 2, NE, Yes,
02/18/2019 18:29, Ice Warning , 14.4 , , 27, 5, 80, 0, 0, 2, NE, Yes,
02/18/2019 18:28, Ice Warning , 14.4 , , 27, 5, 80, 0, 0, 2, NE, Yes,
02/18/2019 18:19, Ice Warning , 14.9 , , 27, 5, 80, 1, 1, 3, NE, Yes,
02/18/2019 18:13, Ice Warning , 15.1 , , 27, 5, 80, 0, 1, 3, NE, Yes,
Change End Date:

Copyright © 1998-2015 Vaisala, Inc.
All Rights Reserved
Send comments about the data to:
SCAN Web ® is a registered trademark of Vaisala, Inc.
SCAN Web Version 6.0